sensor_id;sensor_type;location;lat;lon;timestamp;temperature;humidity
4406;DHT22;2216;53.806;11.598;2023-06-14T00:01:44;14.70;44.60
4406;DHT22;2216;53.806;11.598;2023-06-14T00:04:11;14.60;44.70
4406;DHT22;2216;53.806;11.598;2023-06-14T00:06:38;14.60;44.70
4406;DHT22;2216;53.806;11.598;2023-06-14T00:09:04;14.50;44.70
4406;DHT22;2216;53.806;11.598;2023-06-14T00:11:30;14.50;44.70
4406;DHT22;2216;53.806;11.598;2023-06-14T00:13:57;14.40;44.80
4406;DHT22;2216;53.806;11.598;2023-06-14T00:16:23;14.40;44.90
4406;DHT22;2216;53.806;11.598;2023-06-14T00:18:49;14.30;44.80
4406;DHT22;2216;53.806;11.598;2023-06-14T00:21:17;14.30;44.80
4406;DHT22;2216;53.806;11.598;2023-06-14T00:23:43;14.30;44.80
4406;DHT22;2216;53.806;11.598;2023-06-14T00:26:09;14.20;44.80
4406;DHT22;2216;53.806;11.598;2023-06-14T00:28:34;14.20;44.90
4406;DHT22;2216;53.806;11.598;2023-06-14T00:31:00;14.20;44.90
4406;DHT22;2216;53.806;11.598;2023-06-14T00:33:26;14.10;44.90
4406;DHT22;2216;53.806;11.598;2023-06-14T00:35:51;14.10;44.90
4406;DHT22;2216;53.806;11.598;2023-06-14T00:38:19;14.10;45.00
4406;DHT22;2216;53.806;11.598;2023-06-14T00:40:46;14.10;45.00
4406;DHT22;2216;53.806;11.598;2023-06-14T00:43:11;14.00;45.00
4406;DHT22;2216;53.806;11.598;2023-06-14T00:45:38;14.00;45.00
4406;DHT22;2216;53.806;11.598;2023-06-14T00:48:04;13.90;45.00
4406;DHT22;2216;53.806;11.598;2023-06-14T00:50:32;13.90;45.00
4406;DHT22;2216;53.806;11.598;2023-06-14T00:52:59;13.80;45.00
4406;DHT22;2216;53.806;11.598;2023-06-14T00:55:26;13.80;45.00
4406;DHT22;2216;53.806;11.598;2023-06-14T00:57:53;13.80;45.10
4406;DHT22;2216;53.806;11.598;2023-06-14T01:00:19;13.80;45.10
4406;DHT22;2216;53.806;11.598;2023-06-14T01:02:45;13.70;45.10
4406;DHT22;2216;53.806;11.598;2023-06-14T01:05:11;13.70;45.10
4406;DHT22;2216;53.806;11.598;2023-06-14T01:11:07;13.60;45.20
4406;DHT22;2216;53.806;11.598;2023-06-14T01:13:39;13.60;45.30
4406;DHT22;2216;53.806;11.598;2023-06-14T01:16:08;13.60;45.30
4406;DHT22;2216;53.806;11.598;2023-06-14T01:18:34;13.60;45.40
4406;DHT22;2216;53.806;11.598;2023-06-14T01:21:00;13.50;45.20
4406;DHT22;2216;53.806;11.598;2023-06-14T01:23:31;13.50;45.30
4406;DHT22;2216;53.806;11.598;2023-06-14T01:26:01;13.50;45.30
4406;DHT22;2216;53.806;11.598;2023-06-14T01:28:28;13.50;45.30
4406;DHT22;2216;53.806;11.598;2023-06-14T01:30:58;13.40;45.30
4406;DHT22;2216;53.806;11.598;2023-06-14T01:33:29;13.40;45.30
4406;DHT22;2216;53.806;11.598;2023-06-14T01:35:56;13.40;45.30
4406;DHT22;2216;53.806;11.598;2023-06-14T01:38:26;13.40;45.40
4406;DHT22;2216;53.806;11.598;2023-06-14T01:40:55;13.30;45.30
4406;DHT22;2216;53.806;11.598;2023-06-14T01:43:22;13.30;45.30
4406;DHT22;2216;53.806;11.598;2023-06-14T01:45:50;13.30;45.30
4406;DHT22;2216;53.806;11.598;2023-06-14T01:48:17;13.30;45.40
4406;DHT22;2216;53.806;11.598;2023-06-14T01:50:43;13.20;45.40
4406;DHT22;2216;53.806;11.598;2023-06-14T01:53:09;13.20;45.40
4406;DHT22;2216;53.806;11.598;2023-06-14T01:55:35;13.20;45.40
4406;DHT22;2216;53.806;11.598;2023-06-14T01:58:04;13.20;45.40
4406;DHT22;2216;53.806;11.598;2023-06-14T02:00:30;13.10;45.40
4406;DHT22;2216;53.806;11.598;2023-06-14T02:02:55;13.10;45.40
4406;DHT22;2216;53.806;11.598;2023-06-14T02:05:21;13.10;45.40
4406;DHT22;2216;53.806;11.598;2023-06-14T02:07:47;13.00;45.40
4406;DHT22;2216;53.806;11.598;2023-06-14T02:10:13;13.10;45.50
4406;DHT22;2216;53.806;11.598;2023-06-14T02:12:39;13.00;45.40
4406;DHT22;2216;53.806;11.598;2023-06-14T02:15:05;13.00;45.40
4406;DHT22;2216;53.806;11.598;2023-06-14T02:17:32;13.00;45.40
4406;DHT22;2216;53.806;11.598;2023-06-14T02:19:58;13.00;45.50
4406;DHT22;2216;53.806;11.598;2023-06-14T02:22:24;12.90;45.50
4406;DHT22;2216;53.806;11.598;2023-06-14T02:24:50;12.90;45.40
4406;DHT22;2216;53.806;11.598;2023-06-14T02:27:16;12.90;45.50
4406;DHT22;2216;53.806;11.598;2023-06-14T02:29:42;12.90;45.60
4406;DHT22;2216;53.806;11.598;2023-06-14T02:32:07;12.90;45.60
4406;DHT22;2216;53.806;11.598;2023-06-14T02:34:34;12.90;45.60
4406;DHT22;2216;53.806;11.598;2023-06-14T02:37:00;12.80;45.60
4406;DHT22;2216;53.806;11.598;2023-06-14T02:39:28;12.90;45.70
4406;DHT22;2216;53.806;11.598;2023-06-14T02:41:54;12.80;45.70
4406;DHT22;2216;53.806;11.598;2023-06-14T02:44:24;12.80;45.70
4406;DHT22;2216;53.806;11.598;2023-06-14T02:46:56;12.80;45.70
4406;DHT22;2216;53.806;11.598;2023-06-14T02:49:22;12.80;45.70
4406;DHT22;2216;53.806;11.598;2023-06-14T02:51:48;12.80;45.70
4406;DHT22;2216;53.806;11.598;2023-06-14T02:54:13;12.70;45.70
4406;DHT22;2216;53.806;11.598;2023-06-14T02:56:39;12.70;45.70
4406;DHT22;2216;53.806;11.598;2023-06-14T02:59:06;12.70;45.70
4406;DHT22;2216;53.806;11.598;2023-06-14T03:01:32;12.70;46.30
4406;DHT22;2216;53.806;11.598;2023-06-14T03:04:04;12.70;46.40
4406;DHT22;2216;53.806;11.598;2023-06-14T03:06:30;12.60;45.80
4406;DHT22;2216;53.806;11.598;2023-06-14T03:08:57;12.60;45.70
4406;DHT22;2216;53.806;11.598;2023-06-14T03:11:26;12.60;45.80
4406;DHT22;2216;53.806;11.598;2023-06-14T03:13:53;12.60;45.80
4406;DHT22;2216;53.806;11.598;2023-06-14T03:16:19;12.60;45.80
4406;DHT22;2216;53.806;11.598;2023-06-14T03:18:49;12.60;45.90
4406;DHT22;2216;53.806;11.598;2023-06-14T03:21:18;12.60;45.90
4406;DHT22;2216;53.806;11.598;2023-06-14T03:23:46;12.60;45.90
4406;DHT22;2216;53.806;11.598;2023-06-14T03:26:15;12.60;46.00
4406;DHT22;2216;53.806;11.598;2023-06-14T03:28:44;12.60;46.20
4406;DHT22;2216;53.806;11.598;2023-06-14T03:31:11;12.70;46.20
4406;DHT22;2216;53.806;11.598;2023-06-14T03:33:37;12.70;46.20
4406;DHT22;2216;53.806;11.598;2023-06-14T03:36:03;12.80;46.30
4406;DHT22;2216;53.806;11.598;2023-06-14T03:38:30;12.90;46.40
4406;DHT22;2216;53.806;11.598;2023-06-14T03:40:55;13.00;46.40
4406;DHT22;2216;53.806;11.598;2023-06-14T03:43:21;13.10;46.50
4406;DHT22;2216;53.806;11.598;2023-06-14T03:45:47;13.20;46.60
4406;DHT22;2216;53.806;11.598;2023-06-14T03:48:13;13.30;46.70
4406;DHT22;2216;53.806;11.598;2023-06-14T03:50:38;13.30;46.70
4406;DHT22;2216;53.806;11.598;2023-06-14T03:53:05;13.50;46.90
4406;DHT22;2216;53.806;11.598;2023-06-14T03:55:30;13.60;47.00
4406;DHT22;2216;53.806;11.598;2023-06-14T03:57:57;13.70;47.10
4406;DHT22;2216;53.806;11.598;2023-06-14T04:00:23;13.80;47.00
4406;DHT22;2216;53.806;11.598;2023-06-14T04:02:48;14.00;47.00
4406;DHT22;2216;53.806;11.598;2023-06-14T04:05:14;14.10;47.00
4406;DHT22;2216;53.806;11.598;2023-06-14T04:07:42;14.20;47.10
4406;DHT22;2216;53.806;11.598;2023-06-14T04:10:11;14.30;47.10
4406;DHT22;2216;53.806;11.598;2023-06-14T04:12:38;14.40;46.90
4406;DHT22;2216;53.806;11.598;2023-06-14T04:15:04;14.60;47.00
4406;DHT22;2216;53.806;11.598;2023-06-14T04:17:32;14.70;47.00
4406;DHT22;2216;53.806;11.598;2023-06-14T04:20:01;14.80;47.00
4406;DHT22;2216;53.806;11.598;2023-06-14T04:22:29;14.90;47.00
4406;DHT22;2216;53.806;11.598;2023-06-14T04:24:55;15.00;47.00
4406;DHT22;2216;53.806;11.598;2023-06-14T04:27:22;15.10;46.90
4406;DHT22;2216;53.806;11.598;2023-06-14T04:29:54;15.20;47.00
4406;DHT22;2216;53.806;11.598;2023-06-14T04:32:25;15.40;47.10
4406;DHT22;2216;53.806;11.598;2023-06-14T04:34:53;15.50;47.00
4406;DHT22;2216;53.806;11.598;2023-06-14T04:37:20;15.60;47.00
4406;DHT22;2216;53.806;11.598;2023-06-14T04:39:49;15.70;46.90
4406;DHT22;2216;53.806;11.598;2023-06-14T04:42:15;15.70;46.90
4406;DHT22;2216;53.806;11.598;2023-06-14T04:44:42;15.90;47.10
4406;DHT22;2216;53.806;11.598;2023-06-14T04:47:09;15.80;47.00
4406;DHT22;2216;53.806;11.598;2023-06-14T04:49:35;16.10;47.10
4406;DHT22;2216;53.806;11.598;2023-06-14T04:52:00;16.20;47.00
4406;DHT22;2216;53.806;11.598;2023-06-14T04:54:27;16.20;46.90
4406;DHT22;2216;53.806;11.598;2023-06-14T04:56:53;16.30;47.00
4406;DHT22;2216;53.806;11.598;2023-06-14T04:59:20;16.40;47.50
4406;DHT22;2216;53.806;11.598;2023-06-14T05:01:48;16.50;46.90
4406;DHT22;2216;53.806;11.598;2023-06-14T05:04:18;16.60;46.90
4406;DHT22;2216;53.806;11.598;2023-06-14T05:06:45;16.80;47.00
4406;DHT22;2216;53.806;11.598;2023-06-14T05:09:14;16.90;47.00
4406;DHT22;2216;53.806;11.598;2023-06-14T05:11:41;17.20;47.20
4406;DHT22;2216;53.806;11.598;2023-06-14T05:14:11;17.20;47.40
4406;DHT22;2216;53.806;11.598;2023-06-14T05:16:37;17.40;47.10
4406;DHT22;2216;53.806;11.598;2023-06-14T05:19:03;17.50;47.10
4406;DHT22;2216;53.806;11.598;2023-06-14T05:21:30;17.60;47.10
4406;DHT22;2216;53.806;11.598;2023-06-14T05:23:55;17.70;47.00
4406;DHT22;2216;53.806;11.598;2023-06-14T05:26:21;17.90;47.20
4406;DHT22;2216;53.806;11.598;2023-06-14T05:28:50;18.00;46.90
4406;DHT22;2216;53.806;11.598;2023-06-14T05:31:17;18.20;46.90
4406;DHT22;2216;53.806;11.598;2023-06-14T05:33:43;18.30;47.00
4406;DHT22;2216;53.806;11.598;2023-06-14T05:36:09;18.40;46.80
4406;DHT22;2216;53.806;11.598;2023-06-14T05:38:35;18.50;46.90
4406;DHT22;2216;53.806;11.598;2023-06-14T05:41:00;18.60;46.90
4406;DHT22;2216;53.806;11.598;2023-06-14T05:43:26;18.70;46.70
4406;DHT22;2216;53.806;11.598;2023-06-14T05:45:52;18.80;46.70
4406;DHT22;2216;53.806;11.598;2023-06-14T05:48:17;18.90;46.80
4406;DHT22;2216;53.806;11.598;2023-06-14T05:50:43;19.00;46.80
4406;DHT22;2216;53.806;11.598;2023-06-14T05:53:09;19.20;46.90
4406;DHT22;2216;53.806;11.598;2023-06-14T05:55:35;19.30;47.00
4406;DHT22;2216;53.806;11.598;2023-06-14T05:58:01;19.40;47.00
4406;DHT22;2216;53.806;11.598;2023-06-14T06:00:26;19.60;47.10
4406;DHT22;2216;53.806;11.598;2023-06-14T06:02:53;19.80;47.10
4406;DHT22;2216;53.806;11.598;2023-06-14T06:05:18;19.90;46.90
4406;DHT22;2216;53.806;11.598;2023-06-14T06:07:44;20.10;46.90
4406;DHT22;2216;53.806;11.598;2023-06-14T06:10:11;20.30;46.80
4406;DHT22;2216;53.806;11.598;2023-06-14T06:12:37;20.40;46.70
4406;DHT22;2216;53.806;11.598;2023-06-14T06:15:03;20.50;46.60
4406;DHT22;2216;53.806;11.598;2023-06-14T06:17:29;20.60;46.50
4406;DHT22;2216;53.806;11.598;2023-06-14T06:19:55;20.70;46.50
4406;DHT22;2216;53.806;11.598;2023-06-14T06:22:20;20.80;46.50
4406;DHT22;2216;53.806;11.598;2023-06-14T06:24:46;20.90;46.50
4406;DHT22;2216;53.806;11.598;2023-06-14T06:27:12;21.00;46.50
4406;DHT22;2216;53.806;11.598;2023-06-14T06:29:38;21.10;47.10
4406;DHT22;2216;53.806;11.598;2023-06-14T06:32:04;21.30;46.60
4406;DHT22;2216;53.806;11.598;2023-06-14T06:34:30;21.40;46.50
4406;DHT22;2216;53.806;11.598;2023-06-14T06:36:56;21.60;46.50
4406;DHT22;2216;53.806;11.598;2023-06-14T06:39:22;21.70;46.40
4406;DHT22;2216;53.806;11.598;2023-06-14T06:41:47;21.90;46.40
4406;DHT22;2216;53.806;11.598;2023-06-14T06:44:13;22.00;46.40
4406;DHT22;2216;53.806;11.598;2023-06-14T06:46:39;22.10;46.20
4406;DHT22;2216;53.806;11.598;2023-06-14T06:49:06;22.20;46.20
4406;DHT22;2216;53.806;11.598;2023-06-14T06:51:32;22.30;46.20
4406;DHT22;2216;53.806;11.598;2023-06-14T06:53:59;22.40;46.30
4406;DHT22;2216;53.806;11.598;2023-06-14T06:56:25;22.60;46.20
4406;DHT22;2216;53.806;11.598;2023-06-14T06:58:51;22.70;46.70
4406;DHT22;2216;53.806;11.598;2023-06-14T07:01:17;22.80;46.00
4406;DHT22;2216;53.806;11.598;2023-06-14T07:03:45;23.00;46.00
4406;DHT22;2216;53.806;11.598;2023-06-14T07:06:11;23.10;45.90
4406;DHT22;2216;53.806;11.598;2023-06-14T07:08:37;23.20;45.80
4406;DHT22;2216;53.806;11.598;2023-06-14T07:11:04;23.30;46.30
4406;DHT22;2216;53.806;11.598;2023-06-14T07:13:31;23.30;45.60
4406;DHT22;2216;53.806;11.598;2023-06-14T07:16:00;23.30;45.50
4406;DHT22;2216;53.806;11.598;2023-06-14T07:18:26;23.40;45.50
4406;DHT22;2216;53.806;11.598;2023-06-14T07:20:53;23.40;45.50
4406;DHT22;2216;53.806;11.598;2023-06-14T07:23:20;23.50;45.40
4406;DHT22;2216;53.806;11.598;2023-06-14T07:25:46;23.50;45.40
4406;DHT22;2216;53.806;11.598;2023-06-14T07:28:11;23.50;45.40
4406;DHT22;2216;53.806;11.598;2023-06-14T07:30:37;23.60;45.40
4406;DHT22;2216;53.806;11.598;2023-06-14T07:33:03;23.60;45.30
4406;DHT22;2216;53.806;11.598;2023-06-14T07:35:28;23.70;45.20
4406;DHT22;2216;53.806;11.598;2023-06-14T07:37:54;23.60;45.80
4406;DHT22;2216;53.806;11.598;2023-06-14T07:40:20;23.70;45.30
4406;DHT22;2216;53.806;11.598;2023-06-14T07:42:46;23.80;45.40
4406;DHT22;2216;53.806;11.598;2023-06-14T07:45:13;23.90;45.30
4406;DHT22;2216;53.806;11.598;2023-06-14T07:47:39;23.90;45.10
4406;DHT22;2216;53.806;11.598;2023-06-14T07:50:05;24.00;45.10
4406;DHT22;2216;53.806;11.598;2023-06-14T07:52:31;24.10;45.20
4406;DHT22;2216;53.806;11.598;2023-06-14T07:54:57;24.20;45.10
4406;DHT22;2216;53.806;11.598;2023-06-14T07:57:23;24.30;44.90
4406;DHT22;2216;53.806;11.598;2023-06-14T07:59:49;24.30;44.90
4406;DHT22;2216;53.806;11.598;2023-06-14T08:02:15;24.40;44.60
4406;DHT22;2216;53.806;11.598;2023-06-14T08:04:41;24.40;44.40
4406;DHT22;2216;53.806;11.598;2023-06-14T08:07:07;24.40;44.40
4406;DHT22;2216;53.806;11.598;2023-06-14T08:09:33;24.40;44.50
4406;DHT22;2216;53.806;11.598;2023-06-14T08:12:00;24.40;44.50
4406;DHT22;2216;53.806;11.598;2023-06-14T08:14:25;24.50;44.30
4406;DHT22;2216;53.806;11.598;2023-06-14T08:16:51;24.50;44.20
4406;DHT22;2216;53.806;11.598;2023-06-14T08:19:17;24.50;43.80
4406;DHT22;2216;53.806;11.598;2023-06-14T08:21:43;24.50;44.00
4406;DHT22;2216;53.806;11.598;2023-06-14T08:24:11;24.50;44.10
4406;DHT22;2216;53.806;11.598;2023-06-14T08:26:38;24.60;43.80
4406;DHT22;2216;53.806;11.598;2023-06-14T08:29:04;24.60;44.00
4406;DHT22;2216;53.806;11.598;2023-06-14T08:31:32;24.60;44.00
4406;DHT22;2216;53.806;11.598;2023-06-14T08:33:58;24.60;43.90
4406;DHT22;2216;53.806;11.598;2023-06-14T08:36:24;24.60;44.10
4406;DHT22;2216;53.806;11.598;2023-06-14T08:38:49;24.70;43.50
4406;DHT22;2216;53.806;11.598;2023-06-14T08:41:20;24.70;43.90
4406;DHT22;2216;53.806;11.598;2023-06-14T08:43:47;24.80;43.90
4406;DHT22;2216;53.806;11.598;2023-06-14T08:46:14;24.90;43.80
4406;DHT22;2216;53.806;11.598;2023-06-14T08:48:44;24.90;43.70
4406;DHT22;2216;53.806;11.598;2023-06-14T08:51:10;25.00;43.90
4406;DHT22;2216;53.806;11.598;2023-06-14T08:53:37;25.10;43.60
4406;DHT22;2216;53.806;11.598;2023-06-14T08:56:08;25.20;43.80
4406;DHT22;2216;53.806;11.598;2023-06-14T08:58:41;25.30;43.50
4406;DHT22;2216;53.806;11.598;2023-06-14T09:01:11;25.40;43.50
4406;DHT22;2216;53.806;11.598;2023-06-14T09:03:42;25.40;43.40
4406;DHT22;2216;53.806;11.598;2023-06-14T09:06:08;25.60;43.40
4406;DHT22;2216;53.806;11.598;2023-06-14T09:08:46;25.70;42.90
4406;DHT22;2216;53.806;11.598;2023-06-14T09:11:14;25.70;42.90
4406;DHT22;2216;53.806;11.598;2023-06-14T09:13:41;25.70;43.20
4406;DHT22;2216;53.806;11.598;2023-06-14T09:16:08;25.80;42.90
4406;DHT22;2216;53.806;11.598;2023-06-14T09:18:38;25.80;42.80
4406;DHT22;2216;53.806;11.598;2023-06-14T09:21:06;25.90;43.20
4406;DHT22;2216;53.806;11.598;2023-06-14T09:23:37;26.00;43.00
4406;DHT22;2216;53.806;11.598;2023-06-14T09:28:41;26.10;42.40
4406;DHT22;2216;53.806;11.598;2023-06-14T09:31:09;26.10;42.30
4406;DHT22;2216;53.806;11.598;2023-06-14T09:33:36;26.10;42.20
4406;DHT22;2216;53.806;11.598;2023-06-14T09:36:02;26.10;41.70
4406;DHT22;2216;53.806;11.598;2023-06-14T09:38:29;26.00;41.50
4406;DHT22;2216;53.806;11.598;2023-06-14T09:40:57;25.90;41.60
4406;DHT22;2216;53.806;11.598;2023-06-14T09:43:23;25.80;42.10
4406;DHT22;2216;53.806;11.598;2023-06-14T09:45:51;25.80;42.00
4406;DHT22;2216;53.806;11.598;2023-06-14T09:48:17;25.70;41.40
4406;DHT22;2216;53.806;11.598;2023-06-14T09:50:45;25.70;41.50
4406;DHT22;2216;53.806;11.598;2023-06-14T09:53:13;25.70;41.70
4406;DHT22;2216;53.806;11.598;2023-06-14T09:55:41;25.70;42.00
4406;DHT22;2216;53.806;11.598;2023-06-14T09:58:09;25.70;42.30
4406;DHT22;2216;53.806;11.598;2023-06-14T10:00:36;25.70;41.60
4406;DHT22;2216;53.806;11.598;2023-06-14T10:03:16;25.70;41.70
4406;DHT22;2216;53.806;11.598;2023-06-14T10:05:47;25.60;41.60
4406;DHT22;2216;53.806;11.598;2023-06-14T10:08:15;25.60;41.50
4406;DHT22;2216;53.806;11.598;2023-06-14T10:10:42;25.60;41.90
4406;DHT22;2216;53.806;11.598;2023-06-14T10:13:08;25.60;41.90
4406;DHT22;2216;53.806;11.598;2023-06-14T10:24:20;25.90;42.00
4406;DHT22;2216;53.806;11.598;2023-06-14T10:26:58;25.90;41.40
4406;DHT22;2216;53.806;11.598;2023-06-14T10:29:25;25.90;40.90
4406;DHT22;2216;53.806;11.598;2023-06-14T10:31:57;25.80;41.30
4406;DHT22;2216;53.806;11.598;2023-06-14T10:34:24;25.80;40.70
4406;DHT22;2216;53.806;11.598;2023-06-14T10:37:05;25.70;41.00
4406;DHT22;2216;53.806;11.598;2023-06-14T10:39:39;25.60;41.20
4406;DHT22;2216;53.806;11.598;2023-06-14T10:42:06;25.60;40.80
4406;DHT22;2216;53.806;11.598;2023-06-14T10:44:37;25.50;41.00
4406;DHT22;2216;53.806;11.598;2023-06-14T10:47:07;25.40;40.40
4406;DHT22;2216;53.806;11.598;2023-06-14T10:49:50;25.20;40.70
4406;DHT22;2216;53.806;11.598;2023-06-14T10:52:25;25.00;40.80
4406;DHT22;2216;53.806;11.598;2023-06-14T10:55:10;24.60;40.70
4406;DHT22;2216;53.806;11.598;2023-06-14T10:57:51;24.80;41.20
4406;DHT22;2216;53.806;11.598;2023-06-14T11:00:28;24.80;40.80
4406;DHT22;2216;53.806;11.598;2023-06-14T11:05:59;25.10;41.50
4406;DHT22;2216;53.806;11.598;2023-06-14T11:09:04;25.30;41.50
4406;DHT22;2216;53.806;11.598;2023-06-14T11:11:38;25.50;41.00
4406;DHT22;2216;53.806;11.598;2023-06-14T11:14:07;25.40;40.90
4406;DHT22;2216;53.806;11.598;2023-06-14T11:16:33;25.50;41.10
4406;DHT22;2216;53.806;11.598;2023-06-14T11:19:01;25.50;41.10
4406;DHT22;2216;53.806;11.598;2023-06-14T11:21:28;25.50;41.00
4406;DHT22;2216;53.806;11.598;2023-06-14T11:23:56;25.50;41.00
4406;DHT22;2216;53.806;11.598;2023-06-14T11:26:30;25.60;41.10
4406;DHT22;2216;53.806;11.598;2023-06-14T11:28:58;25.70;41.00
4406;DHT22;2216;53.806;11.598;2023-06-14T11:31:25;25.70;41.20
4406;DHT22;2216;53.806;11.598;2023-06-14T11:33:56;25.80;41.40
4406;DHT22;2216;53.806;11.598;2023-06-14T11:36:26;25.80;40.80
4406;DHT22;2216;53.806;11.598;2023-06-14T11:38:59;25.70;40.60
4406;DHT22;2216;53.806;11.598;2023-06-14T11:41:25;25.60;40.50
4406;DHT22;2216;53.806;11.598;2023-06-14T11:43:54;25.50;40.50
4406;DHT22;2216;53.806;11.598;2023-06-14T11:46:20;25.40;40.60
4406;DHT22;2216;53.806;11.598;2023-06-14T11:48:49;25.40;40.90
4406;DHT22;2216;53.806;11.598;2023-06-14T11:51:15;25.50;40.60
4406;DHT22;2216;53.806;11.598;2023-06-14T11:53:42;25.50;40.90
4406;DHT22;2216;53.806;11.598;2023-06-14T11:56:08;25.50;40.60
4406;DHT22;2216;53.806;11.598;2023-06-14T11:58:34;25.50;40.30
4406;DHT22;2216;53.806;11.598;2023-06-14T12:01:00;25.60;40.40
4406;DHT22;2216;53.806;11.598;2023-06-14T12:03:26;25.70;40.70
4406;DHT22;2216;53.806;11.598;2023-06-14T12:06:07;25.70;40.10
4406;DHT22;2216;53.806;11.598;2023-06-14T12:08:38;25.90;40.30
4406;DHT22;2216;53.806;11.598;2023-06-14T12:11:06;26.00;40.10
4406;DHT22;2216;53.806;11.598;2023-06-14T12:13:38;26.00;39.80
4406;DHT22;2216;53.806;11.598;2023-06-14T12:16:10;25.90;39.60
4406;DHT22;2216;53.806;11.598;2023-06-14T12:18:38;25.70;39.90
4406;DHT22;2216;53.806;11.598;2023-06-14T12:21:08;25.50;39.20
4406;DHT22;2216;53.806;11.598;2023-06-14T12:26:13;25.10;39.50
4406;DHT22;2216;53.806;11.598;2023-06-14T12:28:43;25.10;39.80
4406;DHT22;2216;53.806;11.598;2023-06-14T12:31:11;25.10;40.10
4406;DHT22;2216;53.806;11.598;2023-06-14T12:33:39;25.20;40.10
4406;DHT22;2216;53.806;11.598;2023-06-14T12:36:07;25.40;40.30
4406;DHT22;2216;53.806;11.598;2023-06-14T12:38:35;25.50;40.00
4406;DHT22;2216;53.806;11.598;2023-06-14T12:41:00;25.70;40.10
4406;DHT22;2216;53.806;11.598;2023-06-14T12:43:27;25.80;39.80
4406;DHT22;2216;53.806;11.598;2023-06-14T12:45:53;25.90;40.10
4406;DHT22;2216;53.806;11.598;2023-06-14T12:48:19;26.10;39.40
4406;DHT22;2216;53.806;11.598;2023-06-14T12:50:45;26.20;39.60
4406;DHT22;2216;53.806;11.598;2023-06-14T12:53:11;26.30;39.60
4406;DHT22;2216;53.806;11.598;2023-06-14T12:55:37;26.40;39.90
4406;DHT22;2216;53.806;11.598;2023-06-14T12:58:03;26.60;39.60
4406;DHT22;2216;53.806;11.598;2023-06-14T13:00:28;26.50;39.40
4406;DHT22;2216;53.806;11.598;2023-06-14T13:02:57;26.60;39.30
4406;DHT22;2216;53.806;11.598;2023-06-14T13:05:23;26.70;39.60
4406;DHT22;2216;53.806;11.598;2023-06-14T13:07:49;26.70;38.60
4406;DHT22;2216;53.806;11.598;2023-06-14T13:10:16;26.70;38.30
4406;DHT22;2216;53.806;11.598;2023-06-14T13:12:42;26.50;38.30
4406;DHT22;2216;53.806;11.598;2023-06-14T13:15:09;26.40;38.30
4406;DHT22;2216;53.806;11.598;2023-06-14T13:17:35;26.20;38.20
4406;DHT22;2216;53.806;11.598;2023-06-14T13:20:07;26.00;38.20
4406;DHT22;2216;53.806;11.598;2023-06-14T13:22:34;25.80;38.30
4406;DHT22;2216;53.806;11.598;2023-06-14T13:25:00;25.70;38.70
4406;DHT22;2216;53.806;11.598;2023-06-14T13:27:26;25.80;38.70
4406;DHT22;2216;53.806;11.598;2023-06-14T13:29:52;25.80;38.90
4406;DHT22;2216;53.806;11.598;2023-06-14T13:32:18;25.80;38.80
4406;DHT22;2216;53.806;11.598;2023-06-14T13:34:43;25.80;38.20
4406;DHT22;2216;53.806;11.598;2023-06-14T13:37:09;25.80;38.60
4406;DHT22;2216;53.806;11.598;2023-06-14T13:39:35;25.90;38.80
4406;DHT22;2216;53.806;11.598;2023-06-14T13:42:02;25.90;38.40
4406;DHT22;2216;53.806;11.598;2023-06-14T13:44:29;25.90;38.30
4406;DHT22;2216;53.806;11.598;2023-06-14T13:46:54;25.90;38.30
4406;DHT22;2216;53.806;11.598;2023-06-14T13:49:20;25.90;38.20
4406;DHT22;2216;53.806;11.598;2023-06-14T13:51:46;25.90;38.30
4406;DHT22;2216;53.806;11.598;2023-06-14T13:54:12;25.90;38.50
4406;DHT22;2216;53.806;11.598;2023-06-14T13:56:39;25.90;38.30
4406;DHT22;2216;53.806;11.598;2023-06-14T13:59:05;25.90;37.40
4406;DHT22;2216;53.806;11.598;2023-06-14T14:01:31;25.80;37.70
4406;DHT22;2216;53.806;11.598;2023-06-14T14:03:56;25.80;37.20
4406;DHT22;2216;53.806;11.598;2023-06-14T14:06:24;25.70;37.60
4406;DHT22;2216;53.806;11.598;2023-06-14T14:08:49;25.70;37.70
4406;DHT22;2216;53.806;11.598;2023-06-14T14:11:15;25.70;37.70
4406;DHT22;2216;53.806;11.598;2023-06-14T14:13:41;25.70;37.90
4406;DHT22;2216;53.806;11.598;2023-06-14T14:16:08;25.60;37.70
4406;DHT22;2216;53.806;11.598;2023-06-14T14:18:33;25.60;37.90
4406;DHT22;2216;53.806;11.598;2023-06-14T14:21:00;25.50;37.60
4406;DHT22;2216;53.806;11.598;2023-06-14T14:23:26;25.60;37.90
4406;DHT22;2216;53.806;11.598;2023-06-14T14:25:52;25.60;37.90
4406;DHT22;2216;53.806;11.598;2023-06-14T14:28:17;25.60;37.90
4406;DHT22;2216;53.806;11.598;2023-06-14T14:30:46;25.70;37.60
4406;DHT22;2216;53.806;11.598;2023-06-14T14:33:13;25.70;37.60
4406;DHT22;2216;53.806;11.598;2023-06-14T14:35:42;25.70;36.90
4406;DHT22;2216;53.806;11.598;2023-06-14T14:38:09;25.70;37.30
4406;DHT22;2216;53.806;11.598;2023-06-14T14:40:35;25.60;37.00
4406;DHT22;2216;53.806;11.598;2023-06-14T14:43:01;25.60;36.70
4406;DHT22;2216;53.806;11.598;2023-06-14T14:45:26;25.60;36.20
4406;DHT22;2216;53.806;11.598;2023-06-14T14:47:52;25.50;36.30
4406;DHT22;2216;53.806;11.598;2023-06-14T14:50:18;25.40;36.50
4406;DHT22;2216;53.806;11.598;2023-06-14T14:52:43;25.40;36.90
4406;DHT22;2216;53.806;11.598;2023-06-14T14:55:09;25.30;36.80
4406;DHT22;2216;53.806;11.598;2023-06-14T14:57:35;25.30;36.40
4406;DHT22;2216;53.806;11.598;2023-06-14T15:00:02;25.20;36.40
4406;DHT22;2216;53.806;11.598;2023-06-14T15:02:29;25.30;36.90
4406;DHT22;2216;53.806;11.598;2023-06-14T15:04:55;25.20;36.30
4406;DHT22;2216;53.806;11.598;2023-06-14T15:07:26;25.30;36.80
4406;DHT22;2216;53.806;11.598;2023-06-14T15:09:53;25.20;37.30
4406;DHT22;2216;53.806;11.598;2023-06-14T15:12:19;25.20;36.70
4406;DHT22;2216;53.806;11.598;2023-06-14T15:14:46;25.20;36.60
4406;DHT22;2216;53.806;11.598;2023-06-14T15:17:11;25.30;37.00
4406;DHT22;2216;53.806;11.598;2023-06-14T15:19:37;25.30;36.80
4406;DHT22;2216;53.806;11.598;2023-06-14T15:22:03;25.30;37.00
4406;DHT22;2216;53.806;11.598;2023-06-14T15:24:29;25.40;37.30
4406;DHT22;2216;53.806;11.598;2023-06-14T15:26:57;25.40;36.70
4406;DHT22;2216;53.806;11.598;2023-06-14T15:29:22;25.40;36.50
4406;DHT22;2216;53.806;11.598;2023-06-14T15:31:48;25.30;36.80
4406;DHT22;2216;53.806;11.598;2023-06-14T15:34:14;25.30;36.80
4406;DHT22;2216;53.806;11.598;2023-06-14T15:36:40;25.30;36.10
4406;DHT22;2216;53.806;11.598;2023-06-14T15:39:05;25.20;36.60
4406;DHT22;2216;53.806;11.598;2023-06-14T15:41:31;25.20;36.40
4406;DHT22;2216;53.806;11.598;2023-06-14T15:43:57;25.20;36.00
4406;DHT22;2216;53.806;11.598;2023-06-14T15:46:22;25.10;36.50
4406;DHT22;2216;53.806;11.598;2023-06-14T15:48:48;25.10;36.40
4406;DHT22;2216;53.806;11.598;2023-06-14T15:51:15;25.10;36.50
4406;DHT22;2216;53.806;11.598;2023-06-14T15:53:41;25.10;36.20
4406;DHT22;2216;53.806;11.598;2023-06-14T15:56:06;25.10;36.50
4406;DHT22;2216;53.806;11.598;2023-06-14T15:58:32;25.10;36.60
4406;DHT22;2216;53.806;11.598;2023-06-14T16:00:58;25.10;36.70
4406;DHT22;2216;53.806;11.598;2023-06-14T16:03:23;25.00;36.70
4406;DHT22;2216;53.806;11.598;2023-06-14T16:05:49;25.10;36.60